Weather observations for the past three days for
Roy Hurd Memorial Airport
| Date | Time (cdt) | Wind (mph) | Vis. (mi.) | Weather | Sky Cond. | Temperature (ºF) | Relative Humidity | Wind Chill (°F) | Heat Index (°F) | Pressure | Precipitation (in) | ||||||
|---|---|---|---|---|---|---|---|---|---|---|---|---|---|---|---|---|---|
| Air | Dwpt | 6 hour | altimeter (in) | sea level (mb) | 1 hr | 3 hr | 6 hr | ||||||||||
| Max. | Min. | ||||||||||||||||
| 03 | 00:15 | E 6 | 10.00 | A Few Clouds | FEW075 | 60.8 | 48.2 | 63% | 30.19 | 0.0 | |||||||
| 02 | 23:55 | SE 6 | 10.00 | Partly Cloudy | SCT075 | 62.6 | 46.4 | 56% | 30.19 | 0.0 | |||||||
| 02 | 23:35 | SE 6 | 10.00 | Fair | CLR | 62.6 | 46.4 | 56% | 30.18 | 0.0 | |||||||
| 02 | 23:15 | SE 7 | 10.00 | Fair | CLR | 62.6 | 46.4 | 56% | 30.17 | 0.0 | |||||||
| 02 | 22:55 | SE 8 | 10.00 | Fair | CLR | 64.4 | 46.4 | 52% | 30.17 | 0.0 | |||||||
| 02 | 22:35 | E 9 | 10.00 | Fair | CLR | 64.4 | 46.4 | 52% | 30.16 | 0.0 | |||||||
| 02 | 22:15 | E 8 | 10.00 | Fair | CLR | 64.4 | 46.4 | 52% | 30.16 | 0.0 | |||||||
| 02 | 21:55 | E 8 | 10.00 | Fair | CLR | 66.2 | 44.6 | 46% | 30.16 | 0.0 | |||||||
| 02 | 21:35 | E 8 | 10.00 | Fair | CLR | 66.2 | 44.6 | 46% | 30.15 | 0.0 | |||||||
| 02 | 21:15 | E 7 | 10.00 | Fair | CLR | 66.2 | 44.6 | 46% | 30.14 | 0.0 | |||||||
| 02 | 20:55 | E 8 | 10.00 | Fair | CLR | 68 | 44.6 | 43% | 30.14 | 0.0 | |||||||
| 02 | 20:35 | SE 9 | 10.00 | Fair | CLR | 68 | 44.6 | 43% | 30.14 | 0.0 | |||||||
| 02 | 20:15 | SE 10 | 10.00 | Partly Cloudy | SCT065 | 69.8 | 42.8 | 38% | 30.13 | 0.0 | |||||||
| 02 | 19:55 | E 8 | 10.00 | Partly Cloudy | SCT065 | 69.8 | 41 | 35% | 30.13 | 0.0 | |||||||
| 02 | 19:35 | E 8 | 10.00 | Partly Cloudy | SCT065 | 69.8 | 41 | 35% | 30.13 | 0.0 | |||||||
| 02 | 19:15 | E 9 | 10.00 | Partly Cloudy | SCT065 | 69.8 | 41 | 35% | 30.13 | 0.0 | |||||||
| 02 | 18:55 | E 6 G 12 | 10.00 | Partly Cloudy | SCT065 | 71.6 | 41 | 33% | 30.13 | 0.0 | |||||||
| 02 | 18:35 | SE 8 | 10.00 | A Few Clouds | FEW070 | 69.8 | 41 | 35% | 30.13 | 0.0 | |||||||
| 02 | 18:15 | SE 7 G 14 | 10.00 | A Few Clouds | FEW070 | 71.6 | 41 | 33% | 30.13 | 0.0 | |||||||
| 02 | 17:55 | SE 12 | 10.00 | Fair | CLR | 71.6 | 41 | 33% | 30.13 | 0.0 | |||||||
| 02 | 17:35 | SE 7 G 14 | 10.00 | A Few Clouds | FEW065 | 71.6 | 41 | 33% | 30.13 | 0.0 | |||||||
| 02 | 17:15 | SE 5 G 15 | 10.00 | A Few Clouds | FEW065 | 71.6 | 41 | 33% | 30.14 | 0.0 | |||||||
| 02 | 16:55 | SE 8 | 10.00 | Fair | CLR | 69.8 | 41 | 35% | 30.15 | 0.0 | |||||||
| 02 | 16:35 | SE 8 G 14 | 10.00 | Fair | CLR | 69.8 | 41 | 35% | 30.16 | 0.0 | |||||||
| 02 | 16:15 | Vrbl 5 G 15 | 10.00 | Fair | CLR | 69.8 | 41 | 35% | 30.17 | 0.0 | |||||||
| 02 | 15:55 | S 7 G 13 | 10.00 | Fair | CLR | 69.8 | 41 | 35% | 30.18 | 0.0 | |||||||
| 02 | 15:35 | Vrbl 3 G 15 | 10.00 | Fair | CLR | 69.8 | 41 | 35% | 30.19 | 0.0 | |||||||
| 02 | 15:15 | S 8 | 10.00 | Fair | CLR | 69.8 | 41 | 35% | 30.19 | 0.0 | |||||||
| 02 | 14:55 | SE 9 | 10.00 | A Few Clouds | FEW060 | 68 | 41 | 38% | 30.2 | 0.0 | |||||||
| 02 | 14:35 | Vrbl 8 | 10.00 | Partly Cloudy | SCT055 | 68 | 41 | 38% | 30.21 | 0.0 | |||||||
| 02 | 14:15 | E 6 | 10.00 | Mostly Cloudy | BKN055 | 66.2 | 42.8 | 43% | 30.21 | 0.0 | |||||||
| 02 | 13:55 | Vrbl 6 G 15 | 10.00 | Partly Cloudy | SCT055 | 66.2 | 41 | 40% | 30.22 | 0.0 | |||||||
| 02 | 13:35 | Calm | 10.00 | Partly Cloudy | SCT050 | 66.2 | 42.8 | 43% | 30.23 | 0.0 | |||||||
| 02 | 13:10 | Vrbl 3 G 12 | 10.00 | Partly Cloudy | SCT050 | 66.2 | 42.8 | 43% | 30.24 | 0.0 | |||||||
| 02 | 12:55 | Calm | 10.00 | Mostly Cloudy | BKN050 | 64.4 | 42.8 | 46% | 30.24 | 0.0 | |||||||
| 02 | 12:35 | E 8 | 10.00 | Partly Cloudy | SCT050 SCT055 | 66.2 | 42.8 | 43% | 30.25 | 0.0 | |||||||
| 02 | 12:15 | S 8 | 10.00 | Mostly Cloudy | BKN047 | 64.4 | 42.8 | 46% | 30.25 | 0.0 | |||||||
| 02 | 11:55 | NE 5 | 10.00 | Mostly Cloudy | BKN045 | 64.4 | 44.6 | 49% | 30.25 | 0.0 | |||||||
| 02 | 11:35 | S 7 | 10.00 | A Few Clouds | FEW042 | 62.6 | 46.4 | 56% | 30.25 | 0.0 | |||||||
| 02 | 11:15 | Vrbl 7 | 10.00 | A Few Clouds | FEW041 | 62.6 | 44.6 | 52% | 30.25 | 0.0 | |||||||
| 02 | 10:55 | Calm | 10.00 | Fair | CLR | 60.8 | 44.6 | 55% | 30.25 | 0.0 | |||||||
| 02 | 10:35 | Vrbl 5 | 10.00 | Fair | CLR | 60.8 | 46.4 | 59% | 30.26 | 0.0 | |||||||
| 02 | 10:15 | Calm | 10.00 | Fair | CLR | 59 | 46.4 | 63% | 30.26 | 0.0 | |||||||
| 02 | 09:55 | Calm | 10.00 | Fair | CLR | 59 | 46.4 | 63% | 30.26 | 0.0 | |||||||
| 02 | 09:35 | Calm | 10.00 | Fair | CLR | 59 | 48.2 | 68% | 30.25 | 0.0 | |||||||
| 02 | 09:10 | Calm | 10.00 | Fair | CLR | 57.2 | 50 | 77% | 30.26 | 0.0 | |||||||
| 02 | 08:55 | Calm | 10.00 | Fair | CLR | 57.2 | 51.8 | 82% | 30.25 | 0.0 | |||||||
| 02 | 08:35 | Calm | 10.00 | Fair | CLR | 55.4 | 51.8 | 88% | 30.25 | 0.0 | |||||||
| 02 | 08:15 | Calm | 10.00 | A Few Clouds | FEW060 | 53.6 | 51.8 | 94% | 30.24 | 0.0 | |||||||
| 02 | 07:55 | Calm | 10.00 | A Few Clouds | FEW060 FEW075 | 51.8 | 51.8 | 100% | 30.24 | 0.0 | |||||||
| 02 | 07:35 | Calm | 10.00 | Fair | CLR | 51.8 | 51.8 | 100% | 30.22 | 0.0 | |||||||
| 02 | 07:15 | Calm | 10.00 | A Few Clouds | FEW055 FEW075 | 53.6 | 51.8 | 94% | 30.21 | 0.0 | |||||||
| 02 | 06:55 | Calm | 10.00 | Mostly Cloudy | SCT055 BKN070 | 53.6 | 51.8 | 94% | 30.21 | 0.0 | |||||||
| 02 | 06:35 | Calm | 10.00 | Overcast | OVC070 | 53.6 | 51.8 | 94% | 30.21 | 0.0 | |||||||
| 02 | 06:15 | Calm | 10.00 | Overcast | OVC070 | 53.6 | 51.8 | 94% | 30.21 | 0.0 | |||||||
| 02 | 05:55 | Calm | 10.00 | Overcast | OVC070 | 53.6 | 51.8 | 94% | 30.21 | 0.0 | |||||||
| 02 | 05:35 | S 5 | 10.00 | Overcast | OVC070 | 55.4 | 51.8 | 88% | 30.2 | 0.0 | |||||||
| 02 | 05:15 | S 6 | 10.00 | Overcast | OVC065 | 55.4 | 50 | 82% | 30.2 | 0.0 | |||||||
| 02 | 04:55 | S 5 | 10.00 | Overcast | OVC065 | 55.4 | 50 | 82% | 30.19 | 0.0 | |||||||
| 02 | 04:35 | SE 5 | 10.00 | Overcast | OVC065 | 55.4 | 50 | 82% | 30.19 | 0.0 | |||||||
| 02 | 04:15 | Calm | 10.00 | Overcast | OVC065 | 57.2 | 50 | 77% | 30.19 | 0.0 | |||||||
| 02 | 03:55 | Calm | 10.00 | Overcast | OVC060 | 57.2 | 51.8 | 82% | 30.18 | 0.0 | |||||||
| 02 | 03:35 | Calm | 10.00 | Overcast | OVC065 | 57.2 | 51.8 | 82% | 30.18 | 0.0 | |||||||
| 02 | 03:15 | Calm | 10.00 | Overcast | OVC060 | 55.4 | 51.8 | 88% | 30.18 | 0.0 | |||||||
| 02 | 02:55 | NE 3 | 10.00 | Overcast | OVC060 | 57.2 | 51.8 | 82% | 30.18 | 0.0 | |||||||
| 02 | 02:35 | NE 3 | 10.00 | Overcast | BKN060 BKN075 OVC110 | 57.2 | 48.2 | 72% | 30.18 | 0.0 | |||||||
| 02 | 02:15 | NE 5 | 10.00 | Overcast | OVC060 | 57.2 | 50 | 77% | 30.18 | 0.0 | |||||||
| 02 | 01:55 | Calm | 10.00 | Overcast | OVC060 | 57.2 | 51.8 | 82% | 30.18 | 0.0 | |||||||
| 02 | 01:35 | N 3 | 10.00 | Overcast | OVC060 | 57.2 | 51.8 | 82% | 30.18 | 0.0 | |||||||
| 02 | 01:15 | Calm | 10.00 | Overcast | OVC060 | 57.2 | 50 | 77% | 30.18 | 0.0 | |||||||
| 02 | 00:55 | Calm | 10.00 | Overcast | OVC060 | 57.2 | 51.8 | 82% | 30.18 | 0.0 | |||||||
| 02 | 00:35 | NE 3 | 10.00 | Overcast | OVC060 | 57.2 | 51.8 | 82% | 30.17 | 0.0 | |||||||
| 02 | 00:15 | Calm | 10.00 | Overcast | BKN060 OVC075 | 57.2 | 51.8 | 82% | 30.17 | 0.0 | |||||||
| 01 | 23:55 | NE 7 | 10.00 | Overcast | FEW060 OVC075 | 57.2 | 51.8 | 82% | 30.17 | 0.0 | |||||||
| 01 | 23:35 | N 5 | 10.00 | Overcast | BKN060 OVC070 | 57.2 | 50 | 77% | 30.17 | 0.0 | |||||||
| 01 | 23:15 | NE 7 | 10.00 | Overcast | OVC060 | 57.2 | 50 | 77% | 30.16 | 0.0 | |||||||
| 01 | 22:55 | NE 5 | 10.00 | Overcast | BKN060 OVC100 | 59 | 50 | 72% | 30.15 | 0.0 | |||||||
| 01 | 22:35 | NE 6 | 10.00 | Mostly Cloudy | BKN100 | 59 | 50 | 72% | 30.14 | 0.0 | |||||||
| 01 | 22:15 | NE 8 | 10.00 | Partly Cloudy | SCT060 SCT070 SCT085 | 59 | 48.2 | 68% | 30.13 | 0.0 | |||||||
| 01 | 21:55 | NE 7 G 14 | 10.00 | Overcast | BKN060 OVC070 | 59 | 48.2 | 68% | 30.13 | 0.0 | |||||||
| 01 | 21:35 | NE 13 | 10.00 | Overcast | FEW038 BKN060 OVC070 | 59 | 48.2 | 68% | 30.11 | 0.0 | |||||||
| 01 | 21:15 | NE 10 | 10.00 | Overcast | FEW036 OVC060 | 59 | 48.2 | 68% | 30.1 | 0.0 | |||||||
| 01 | 20:55 | NE 13 G 22 | 10.00 | Overcast | BKN040 OVC065 | 59 | 48.2 | 68% | 30.09 | 0.0 | |||||||
| 01 | 20:35 | NE 14 G 23 | 10.00 | Overcast | OVC039 | 59 | 50 | 72% | 30.08 | 0.0 | |||||||
| 01 | 20:15 | NE 16 | 10.00 | Overcast | OVC037 | 59 | 50 | 72% | 30.07 | 0.0 | |||||||
| 01 | 19:55 | NE 13 G 21 | 10.00 | Overcast | BKN036 OVC042 | 59 | 50 | 72% | 30.06 | 0.0 | |||||||
| 01 | 19:35 | NE 15 G 23 | 10.00 | Overcast | FEW026 OVC034 | 59 | 50 | 72% | 30.05 | 0.0 | |||||||
| 01 | 19:15 | NE 20 | 10.00 | Overcast | FEW024 OVC032 | 59 | 51.8 | 77% | 30.05 | 0.0 | |||||||
| 01 | 18:55 | E 18 | 10.00 | Overcast | OVC033 | 60.8 | 51.8 | 72% | 30.03 | 0.0 | |||||||
| 01 | 18:35 | NE 15 G 21 | 10.00 | Overcast | OVC033 | 60.8 | 51.8 | 72% | 30.03 | 0.0 | |||||||
| 01 | 18:15 | NE 12 G 21 | 10.00 | Overcast | BKN030 OVC035 | 60.8 | 51.8 | 72% | 30.02 | 0.0 | |||||||
| 01 | 17:50 | E 15 G 23 | 10.00 | Overcast | BKN030 OVC036 | 60.8 | 51.8 | 72% | 30 | 0.0 | |||||||
| 01 | 17:35 | E 18 G 25 | 10.00 | Overcast | BKN030 OVC037 | 62.6 | 53.6 | 73% | 29.99 | 0.0 | |||||||
| 01 | 17:15 | E 16 G 24 | 10.00 | Overcast | BKN028 OVC035 | 62.6 | 53.6 | 73% | 29.98 | 0.0 | |||||||
| 01 | 16:55 | E 20 | 10.00 | Overcast | BKN027 BKN034 OVC040 | 62.6 | 53.6 | 73% | 29.98 | 0.0 | |||||||
| 01 | 16:35 | E 18 | 10.00 | Mostly Cloudy | BKN027 BKN033 | 62.6 | 53.6 | 73% | 29.98 | 0.0 | |||||||
| 01 | 16:15 | E 20 | 10.00 | Overcast | BKN025 BKN029 OVC100 | 62.6 | 53.6 | 73% | 29.98 | 0.0 | |||||||
| 01 | 15:55 | E 20 G 28 | 10.00 | Overcast | BKN023 OVC100 | 62.6 | 55.4 | 77% | 29.98 | 0.0 | |||||||
| 01 | 15:35 | E 18 G 30 | 10.00 | Overcast | BKN022 BKN026 OVC100 | 62.6 | 55.4 | 77% | 29.98 | 0.0 | |||||||
| 01 | 15:15 | E 21 | 10.00 | Mostly Cloudy and Breezy | BKN023 | 62.6 | 55.4 | 77% | 29.98 | 0.0 | |||||||
| 01 | 14:55 | E 22 G 35 | 10.00 | Mostly Cloudy and Breezy | SCT021 SCT027 BKN075 | 62.6 | 55.4 | 77% | 29.98 | 0.0 | |||||||
| 01 | 14:35 | E 21 G 26 | 10.00 | Overcast and Breezy | BKN018 BKN055 OVC075 | 60.8 | 55.4 | 83% | 29.99 | 0.0 | |||||||
| 01 | 14:15 | E 23 G 29 | 10.00 | Overcast and Breezy | SCT017 BKN050 OVC075 | 60.8 | 55.4 | 83% | 29.99 | 0.0 | |||||||
| 01 | 13:55 | E 24 | 10.00 | Overcast and Breezy | SCT016 BKN055 OVC070 | 59 | 55.4 | 88% | 29.99 | 0.0 | |||||||
| 01 | 13:35 | E 21 G 37 | 10.00 | Overcast and Breezy | BKN015 BKN046 OVC075 | 60.8 | 55.4 | 83% | 29.99 | 0.0 | |||||||
| 01 | 13:15 | E 24 G 37 | 10.00 | Overcast and Breezy | BKN014 BKN031 OVC050 | 59 | 55.4 | 88% | 29.99 | 0.0 | |||||||
| 01 | 12:55 | E 29 | 10.00 | Overcast and Windy | FEW011 SCT031 OVC049 | 59 | 57.2 | 94% | 30 | 0.0 | |||||||
| 01 | 12:35 | E 18 G 28 | 10.00 | Overcast | FEW040 OVC047 | 59 | 57.2 | 94% | 30 | 0.0 | |||||||
| 01 | 12:15 | E 22 G 30 | 5.00 | Light Rain Fog/Mist and Breezy | FEW008 BKN050 OVC070 | 57.2 | 57.2 | 100% | 30.01 | 0.0 | |||||||
| 01 | 11:55 | E 20 | 10.00 | Light Drizzle | SCT008 BKN020 OVC070 | 57.2 | 57.2 | 100% | 30.01 | 0.0 | 0.01 | ||||||
| 01 | 11:35 | E 15 | 10.00 | Light Rain | SCT008 BKN013 OVC018 | 57.2 | 57.2 | 100% | 30.01 | 0.0 | |||||||
| 01 | 11:15 | NE 13 G 18 | 7.00 | Light Rain | BKN008 OVC013 | 57.2 | 57.2 | 100% | 30.02 | 0.0 | |||||||
| 01 | 10:55 | NE 6 | 10.00 | Light Drizzle | SCT007 SCT055 BKN080 | 57.2 | 57.2 | 100% | 30.02 | 0.0 | 0.08 | ||||||
| 01 | 10:35 | E 14 | 4.00 | Light Rain Fog/Mist | FEW005 SCT011 SCT070 | 57.2 | 57.2 | 100% | 29.97 | 0.0 | |||||||
| 01 | 10:15 | E 3 | 2.00 | Light Rain Fog/Mist | SCT006 BKN011 OVC018 | 57.2 | 57.2 | 100% | 30 | 0.0 | |||||||
| 01 | 09:55 | NW 6 | 1.00 | Heavy Rain Fog/Mist | BKN006 OVC012 | 57.2 | 57.2 | 100% | 30.01 | 0.0 | 0.21 | ||||||
| 01 | 09:30 | Calm | 3.00 | Light Rain Fog/Mist | SCT007 SCT011 BKN016 | 57.2 | 57.2 | 100% | 30 | 0.0 | |||||||
| 01 | 09:15 | Vrbl 3 | 2.00 | Light Rain Fog/Mist | FEW005 FEW020 BKN080 | 57.2 | 57.2 | 100% | 29.97 | 0.0 | |||||||
| 01 | 08:55 | SE 9 | 0.75 | Rain Fog/Mist | BKN005 BKN011 OVC017 | 57.2 | 57.2 | 100% | 29.96 | 0.0 | 0.26 | ||||||
| 01 | 08:35 | Calm | 1.00 | Heavy Rain Fog/Mist | BKN005 OVC015 | 57.2 | 57.2 | 100% | 29.97 | 0.0 | |||||||
| 01 | 08:15 | Calm | 1.00 | Rain Fog/Mist | SCT006 OVC015 | 57.2 | 57.2 | 100% | 29.96 | 0.0 | |||||||
| 01 | 07:55 | SE 9 G 15 | 10.00 | Overcast | SCT017 BKN030 OVC065 | 59 | 57.2 | 94% | 29.93 | 0.0 | |||||||
| 01 | 07:35 | E 14 | 10.00 | Overcast | SCT017 BKN030 OVC090 | 59 | 57.2 | 94% | 29.91 | 0.0 | |||||||
| 01 | 07:15 | E 13 | 10.00 | Overcast | FEW012 OVC018 | 59 | 57.2 | 94% | 29.9 | 0.0 | |||||||
| 01 | 06:55 | E 12 | 10.00 | Overcast | BKN012 OVC018 | 59 | 57.2 | 94% | 29.91 | 0.0 | |||||||
| 01 | 06:35 | SE 9 | 10.00 | Light Rain | BKN013 OVC018 | 59 | 57.2 | 94% | 29.92 | 0.0 | |||||||
| 01 | 06:15 | E 9 | 10.00 | Light Rain | BKN015 BKN028 OVC075 | 59 | 57.2 | 94% | 29.91 | 0.0 | |||||||
| 01 | 05:55 | SE 9 | 10.00 | Overcast | SCT025 BKN055 OVC075 | 59 | 57.2 | 94% | 29.91 | 0.0 | |||||||
| 01 | 05:35 | E 9 | 10.00 | Overcast | FEW041 OVC055 | 59 | 57.2 | 94% | 29.91 | 0.0 | |||||||
| 01 | 05:15 | E 12 | 10.00 | Overcast | SCT041 BKN055 OVC090 | 59 | 57.2 | 94% | 29.92 | 0.0 | |||||||
| 01 | 04:55 | NE 12 | 10.00 | Light Rain | FEW039 SCT060 BKN075 | 59 | 57.2 | 94% | 29.92 | 0.0 | |||||||
| 01 | 04:35 | E 7 | 10.00 | Light Rain | FEW030 BKN075 OVC110 | 59 | 57.2 | 94% | 29.94 | 0.0 | |||||||
| 01 | 04:15 | E 8 | 10.00 | Light Rain | FEW050 BKN070 OVC110 | 60.8 | 57.2 | 88% | 29.93 | 0.0 | |||||||
| 01 | 03:55 | E 7 | 10.00 | Overcast | FEW055 BKN100 OVC120 | 60.8 | 57.2 | 88% | 29.93 | 0.0 | |||||||
| 01 | 03:35 | E 9 | 10.00 | Overcast | FEW060 BKN100 OVC120 | 60.8 | 57.2 | 88% | 29.93 | 0.0 | |||||||
| 01 | 03:15 | E 9 | 10.00 | Overcast | SCT021 BKN060 OVC120 | 60.8 | 57.2 | 88% | 29.93 | 0.0 | |||||||
| 01 | 02:55 | E 8 | 10.00 | Mostly Cloudy | SCT019 BKN100 BKN120 | 60.8 | 59 | 94% | 29.95 | 0.0 | |||||||
| 01 | 02:35 | E 9 | 10.00 | Mostly Cloudy | FEW065 FEW080 BKN110 | 60.8 | 59 | 94% | 29.95 | 0.0 | |||||||
| 01 | 02:15 | SE 8 | 10.00 | Mostly Cloudy | FEW065 SCT075 BKN080 | 60.8 | 59 | 94% | 29.96 | 0.0 | |||||||
| 01 | 01:55 | SE 9 | 10.00 | Light Rain | FEW060 OVC070 | 60.8 | 59 | 94% | 29.97 | 0.0 | |||||||
| 01 | 01:35 | SE 7 G 13 | 10.00 | Overcast | FEW027 FEW039 OVC070 | 60.8 | 59 | 94% | 29.96 | 0.0 | |||||||
| 01 | 01:15 | SE 9 | 10.00 | Light Rain | FEW040 BKN070 OVC110 | 62.6 | 59 | 88% | 29.95 | 0.0 | |||||||
| 01 | 00:55 | E 9 | 8.00 | Light Rain | SCT060 BKN070 OVC110 | 62.6 | 59 | 88% | 29.96 | 0.0 | |||||||
| 01 | 00:35 | E 9 | 10.00 | Overcast | FEW045 OVC070 | 64.4 | 57.2 | 78% | 29.96 | 0.0 | |||||||
| 01 | 00:15 | E 8 | 10.00 | Light Rain | FEW044 BKN070 OVC110 | 64.4 | 55.4 | 73% | 29.96 | 0.0 | |||||||
| 30 | 23:55 | E 10 | 10.00 | Light Rain | OVC070 | 66.2 | 53.6 | 64% | 29.97 | 0.0 | |||||||
| 30 | 23:35 | E 6 | 10.00 | Overcast | FEW049 BKN070 OVC110 | 66.2 | 53.6 | 64% | 29.98 | 0.0 | |||||||
| 30 | 23:10 | E 8 | 10.00 | Light Rain | FEW041 SCT048 BKN065 | 64.4 | 53.6 | 68% | 29.96 | 0.0 | |||||||
| 30 | 22:55 | E 9 | 10.00 | Mostly Cloudy | FEW042 SCT048 BKN070 | 66.2 | 51.8 | 60% | 29.97 | 0.0 | |||||||
| 30 | 22:35 | NE 9 | 10.00 | Mostly Cloudy | FEW047 SCT060 BKN070 | 66.2 | 51.8 | 60% | 29.97 | 0.0 | |||||||
| 30 | 22:15 | NE 9 | 10.00 | Mostly Cloudy | FEW050 SCT080 BKN120 | 66.2 | 51.8 | 60% | 29.96 | 0.0 | |||||||
| 30 | 21:55 | NE 13 G 20 | 10.00 | Mostly Cloudy | FEW050 FEW065 BKN075 | 66.2 | 50 | 56% | 29.93 | 0.0 | |||||||
| 30 | 21:35 | NE 12 G 18 | 10.00 | Light Rain | FEW048 BKN065 OVC075 | 69.8 | 46.4 | 43% | 29.95 | 0.0 | |||||||
| 30 | 21:15 | E 7 | 10.00 | Mostly Cloudy | FEW035 SCT045 BKN055 | 71.6 | 44.6 | 38% | 29.93 | 0.0 | |||||||
| 30 | 20:55 | NE 5 | 10.00 | Overcast | SCT045 BKN060 OVC100 | 71.6 | 42.8 | 36% | 29.93 | 0.0 | |||||||
| 30 | 20:35 | E 8 | 10.00 | Overcast | SCT065 BKN075 OVC100 | 71.6 | 42.8 | 36% | 29.92 | 0.0 | |||||||
| 30 | 20:15 | NE 8 | 10.00 | Partly Cloudy | SCT100 | 71.6 | 44.6 | 38% | 29.91 | 0.0 | |||||||
| 30 | 19:55 | N 3 | 10.00 | Fair | CLR | 71.6 | 42.8 | 36% | 29.91 | 0.0 | |||||||
| 30 | 19:30 | NE 6 | 10.00 | A Few Clouds | FEW075 FEW095 | 71.6 | 44.6 | 38% | 29.89 | 0.0 | |||||||
| 30 | 19:15 | NE 6 | 10.00 | Partly Cloudy | FEW075 SCT095 SCT110 | 73.4 | 44.6 | 36% | 29.9 | 0.0 | |||||||
| 30 | 18:55 | Calm | 10.00 | Partly Cloudy | FEW100 SCT120 | 71.6 | 46.4 | 41% | 29.9 | 0.0 | |||||||
| 30 | 18:35 | Vrbl 5 | 10.00 | A Few Clouds | FEW120 | 71.6 | 46.4 | 41% | 29.89 | 0.0 | |||||||
| 30 | 18:15 | N 5 G 13 | 10.00 | Fair | CLR | 71.6 | 46.4 | 41% | 29.88 | 0.0 | |||||||
| 30 | 17:55 | NE 10 | 10.00 | Fair | CLR | 71.6 | 48.2 | 44% | 29.88 | 0.0 | |||||||
| 30 | 17:35 | NE 13 G 20 | 10.00 | Fair | CLR | 71.6 | 48.2 | 44% | 29.87 | 0.0 | |||||||
| 30 | 17:15 | NE 12 | 10.00 | Fair | CLR | 71.6 | 48.2 | 44% | 29.9 | 0.0 | |||||||
| 30 | 16:55 | N 15 | 10.00 | Fair | CLR | 71.6 | 48.2 | 44% | 29.89 | 0.0 | |||||||
| 30 | 16:35 | NE 12 G 18 | 10.00 | Fair | CLR | 71.6 | 50 | 47% | 29.9 | 0.0 | |||||||
| 30 | 16:10 | NE 15 | 10.00 | Fair | CLR | 71.6 | 50 | 47% | 29.92 | 0.0 | |||||||
| 30 | 15:55 | NE 15 G 23 | 10.00 | Fair | CLR | 73.4 | 50 | 44% | 29.91 | 0.0 | |||||||
| 30 | 15:35 | NE 15 | 10.00 | Fair | CLR | 73.4 | 50 | 44% | 29.91 | 0.0 | |||||||
| 30 | 15:15 | N 12 G 17 | 10.00 | Fair | CLR | 75.2 | 50 | 41% | 78 | 29.92 | 0.0 | ||||||
| 30 | 14:55 | NE 9 G 17 | 10.00 | A Few Clouds | FEW045 | 75.2 | 51.8 | 44% | 78 | 29.91 | 0.0 | ||||||
| 30 | 14:35 | N 12 | 10.00 | Fair | CLR | 73.4 | 53.6 | 50% | 29.93 | 0.0 | |||||||
| 30 | 14:15 | Calm | 10.00 | Fair | CLR | 73.4 | 55.4 | 53% | 29.93 | 0.0 | |||||||
| 30 | 13:55 | N 13 G 20 | 10.00 | Fair | CLR | 73.4 | 53.6 | 50% | 29.93 | 0.0 | |||||||
| 30 | 13:35 | N 10 | 10.00 | Partly Cloudy | SCT026 | 71.6 | 53.6 | 53% | 29.93 | 0.0 | |||||||
| 30 | 13:10 | Calm | 10.00 | Overcast | OVC024 | 69.8 | 53.6 | 57% | 29.94 | 0.0 | |||||||
| 30 | 12:55 | Vrbl 7 | 10.00 | Overcast | OVC023 | 69.8 | 53.6 | 57% | 29.95 | 0.0 | |||||||
| 30 | 12:35 | Calm | 10.00 | Overcast | OVC025 | 68 | 53.6 | 60% | 29.94 | 0.0 | |||||||
| 30 | 12:15 | NE 7 | 10.00 | Overcast | OVC024 | 66.2 | 53.6 | 64% | 29.94 | 0.0 | |||||||
| 30 | 11:55 | N 8 G 17 | 10.00 | Overcast | BKN019 OVC023 | 66.2 | 53.6 | 64% | 29.96 | 0.0 | |||||||
| 30 | 11:35 | NE 10 | 10.00 | Overcast | OVC018 | 66.2 | 51.8 | 60% | 29.93 | 0.0 | |||||||
| 30 | 11:15 | Vrbl 5 | 10.00 | Overcast | OVC017 | 64.4 | 53.6 | 68% | 29.94 | 0.0 | |||||||
| 30 | 10:55 | Vrbl 3 | 10.00 | Overcast | OVC016 | 64.4 | 51.8 | 64% | 29.96 | 0.0 | |||||||
| 30 | 10:35 | S 5 G 15 | 10.00 | Overcast | OVC013 | 62.6 | 51.8 | 68% | 29.94 | 0.0 | |||||||
| 30 | 10:15 | SE 17 | 10.00 | Overcast | OVC014 | 62.6 | 51.8 | 68% | 29.91 | 0.0 | |||||||
| 30 | 09:55 | E 16 | 10.00 | Overcast | OVC015 | 62.6 | 50 | 64% | 29.91 | 0.0 | |||||||
| 30 | 09:35 | E 10 | 10.00 | Overcast | OVC017 | 60.8 | 50 | 68% | 29.92 | 0.0 | |||||||
| 30 | 09:15 | E 13 G 22 | 10.00 | Overcast | OVC014 | 60.8 | 51.8 | 72% | 29.93 | 0.0 | |||||||
| 30 | 08:55 | E 13 | 10.00 | Overcast | BKN015 OVC120 | 60.8 | 51.8 | 72% | 29.93 | 0.0 | |||||||
| 30 | 08:35 | E 14 | 10.00 | Mostly Cloudy | BKN120 | 60.8 | 50 | 68% | 29.93 | 0.0 | |||||||
| 30 | 08:15 | E 10 G 16 | 10.00 | Partly Cloudy | SCT120 | 60.8 | 50 | 68% | 29.92 | 0.0 | |||||||
| 30 | 07:55 | E 13 | 10.00 | A Few Clouds | FEW110 | 60.8 | 50 | 68% | 29.92 | 0.0 | |||||||
| 30 | 07:35 | E 13 | 10.00 | Mostly Cloudy | FEW060 SCT085 BKN110 | 60.8 | 48.2 | 63% | 29.92 | 0.0 | |||||||
| 30 | 07:15 | NE 8 | 10.00 | Mostly Cloudy | FEW050 SCT065 BKN075 | 60.8 | 50 | 68% | 29.93 | 0.0 | |||||||
| 30 | 06:55 | E 6 | 10.00 | Overcast | OVC110 | 60.8 | 50 | 68% | 29.92 | 0.0 | |||||||
| 30 | 06:35 | E 10 G 17 | 10.00 | Overcast | FEW055 BKN090 OVC110 | 60.8 | 51.8 | 72% | 29.9 | 0.0 | |||||||
| 30 | 06:15 | E 16 | 10.00 | Mostly Cloudy | FEW042 SCT075 BKN090 | 60.8 | 51.8 | 72% | 29.88 | 0.0 | |||||||
| 30 | 05:55 | NE 10 G 18 | 10.00 | Overcast | SCT020 BKN065 OVC110 | 62.6 | 53.6 | 73% | 29.92 | 0.0 | |||||||
| 30 | 05:35 | E 13 | 10.00 | Overcast | BKN020 BKN075 OVC110 | 62.6 | 53.6 | 73% | 29.93 | 0.0 | |||||||
| 30 | 05:15 | E 10 | 10.00 | Mostly Cloudy | FEW020 FEW075 BKN120 | 62.6 | 53.6 | 73% | 29.93 | 0.0 | |||||||
| 30 | 04:55 | E 13 | 10.00 | A Few Clouds | FEW120 | 62.6 | 53.6 | 73% | 29.92 | 0.0 | |||||||
| 30 | 04:30 | E 13 | 10.00 | Fair | CLR | 62.6 | 53.6 | 73% | 29.91 | 0.0 | |||||||
| 30 | 04:10 | E 13 | 10.00 | Fair | CLR | 62.6 | 53.6 | 73% | 29.9 | 0.0 | |||||||
| 30 | 03:55 | E 12 G 18 | 10.00 | Fair | CLR | 62.6 | 53.6 | 73% | 29.9 | 0.0 | |||||||
| 30 | 03:35 | E 12 G 20 | 10.00 | Fair | CLR | 62.6 | 53.6 | 73% | 29.89 | 0.0 | |||||||
| 30 | 03:15 | E 10 G 21 | 10.00 | A Few Clouds | FEW120 | 62.6 | 53.6 | 73% | 29.9 | 0.0 | |||||||
| 30 | 02:55 | E 10 G 21 | 10.00 | A Few Clouds | FEW120 | 62.6 | 51.8 | 68% | 29.9 | 0.0 | |||||||
| 30 | 02:35 | E 15 | 10.00 | Fair | CLR | 62.6 | 51.8 | 68% | 29.9 | 0.0 | |||||||
| 30 | 02:15 | E 20 | 10.00 | Fair | CLR | 62.6 | 51.8 | 68% | 29.9 | 0.0 | |||||||
| 30 | 01:55 | E 13 G 23 | 10.00 | Fair | CLR | 64.4 | 51.8 | 64% | 29.93 | 0.0 | |||||||
| 30 | 01:35 | SE 15 G 21 | 10.00 | Fair | CLR | 64.4 | 50 | 60% | 29.92 | 0.0 | |||||||
| 30 | 01:15 | E 15 | 10.00 | Fair | CLR | 64.4 | 50 | 60% | 29.93 | 0.0 | |||||||
| 30 | 00:55 | E 14 | 10.00 | Fair | CLR | 64.4 | 50 | 60% | 29.94 | 0.0 | |||||||
| 30 | 00:35 | E 13 G 21 | 10.00 | Fair | CLR | 64.4 | 50 | 60% | 29.95 | 0.0 | |||||||
| Date | Time (cdt) | Wind (mph) | Vis. (mi.) | Weather | Sky Cond. | Air | Dwpt | Max. | Min. | Relative Humidity | Wind Chill (°F) | Heat Index (°F) | altimeter (in) | sea level (mb) | 1 hr | 3 hr | 6 hr |
| 6 hour | |||||||||||||||||
| Temperature (ºF) | Pressure | Precipitation (in) | |||||||||||||||